sensor_id;sensor_type;location;lat;lon;timestamp;temperature;humidity
13186;DHT22;6658;53.080;7.428;2023-04-25T00:00:35;7.40;99.90
13186;DHT22;6658;53.080;7.428;2023-04-25T00:03:01;7.40;99.90
13186;DHT22;6658;53.080;7.428;2023-04-25T00:05:27;7.40;99.90
13186;DHT22;6658;53.080;7.428;2023-04-25T00:07:52;7.30;99.90
13186;DHT22;6658;53.080;7.428;2023-04-25T00:10:19;7.10;99.90
13186;DHT22;6658;53.080;7.428;2023-04-25T00:12:45;7.00;99.90
13186;DHT22;6658;53.080;7.428;2023-04-25T00:15:12;6.90;99.90
13186;DHT22;6658;53.080;7.428;2023-04-25T00:17:37;6.80;99.90
13186;DHT22;6658;53.080;7.428;2023-04-25T00:20:06;6.70;99.90
13186;DHT22;6658;53.080;7.428;2023-04-25T00:22:35;6.70;99.90
13186;DHT22;6658;53.080;7.428;2023-04-25T00:25:06;6.70;99.90
13186;DHT22;6658;53.080;7.428;2023-04-25T00:27:32;6.70;99.90
13186;DHT22;6658;53.080;7.428;2023-04-25T00:29:58;6.70;99.90
13186;DHT22;6658;53.080;7.428;2023-04-25T00:32:23;6.70;99.90
13186;DHT22;6658;53.080;7.428;2023-04-25T00:34:49;6.70;99.90
13186;DHT22;6658;53.080;7.428;2023-04-25T00:37:15;6.70;99.90
13186;DHT22;6658;53.080;7.428;2023-04-25T00:39:41;6.70;99.90
13186;DHT22;6658;53.080;7.428;2023-04-25T00:42:07;6.70;99.90
13186;DHT22;6658;53.080;7.428;2023-04-25T00:44:34;6.70;99.90
13186;DHT22;6658;53.080;7.428;2023-04-25T00:47:02;6.80;99.90
13186;DHT22;6658;53.080;7.428;2023-04-25T00:49:28;6.80;99.90
13186;DHT22;6658;53.080;7.428;2023-04-25T00:51:54;6.80;99.90
13186;DHT22;6658;53.080;7.428;2023-04-25T00:54:20;6.80;99.90
13186;DHT22;6658;53.080;7.428;2023-04-25T00:56:46;6.80;99.90
13186;DHT22;6658;53.080;7.428;2023-04-25T00:59:12;6.80;99.90
13186;DHT22;6658;53.080;7.428;2023-04-25T01:01:39;6.80;99.90
13186;DHT22;6658;53.080;7.428;2023-04-25T01:04:05;6.70;99.90
13186;DHT22;6658;53.080;7.428;2023-04-25T01:06:31;6.70;99.90
13186;DHT22;6658;53.080;7.428;2023-04-25T01:08:57;6.70;99.90
13186;DHT22;6658;53.080;7.428;2023-04-25T01:11:24;6.80;99.90
13186;DHT22;6658;53.080;7.428;2023-04-25T01:13:50;6.80;99.90
13186;DHT22;6658;53.080;7.428;2023-04-25T01:16:16;6.80;99.90
13186;DHT22;6658;53.080;7.428;2023-04-25T01:18:42;6.80;99.90
13186;DHT22;6658;53.080;7.428;2023-04-25T01:21:09;6.80;99.90
13186;DHT22;6658;53.080;7.428;2023-04-25T01:23:36;6.80;99.90
13186;DHT22;6658;53.080;7.428;2023-04-25T01:26:02;6.80;99.90
13186;DHT22;6658;53.080;7.428;2023-04-25T01:28:28;6.70;99.90
13186;DHT22;6658;53.080;7.428;2023-04-25T01:33:25;6.70;99.90
13186;DHT22;6658;53.080;7.428;2023-04-25T01:38:19;6.60;99.90
13186;DHT22;6658;53.080;7.428;2023-04-25T01:40:45;6.60;99.90
13186;DHT22;6658;53.080;7.428;2023-04-25T01:43:12;6.60;99.90
13186;DHT22;6658;53.080;7.428;2023-04-25T01:45:40;6.60;99.90
13186;DHT22;6658;53.080;7.428;2023-04-25T01:48:12;6.60;99.90
13186;DHT22;6658;53.080;7.428;2023-04-25T01:50:39;6.60;99.90
13186;DHT22;6658;53.080;7.428;2023-04-25T01:53:05;6.60;99.90
13186;DHT22;6658;53.080;7.428;2023-04-25T01:55:31;6.60;99.90
13186;DHT22;6658;53.080;7.428;2023-04-25T01:57:57;6.60;99.90
13186;DHT22;6658;53.080;7.428;2023-04-25T02:00:24;6.60;99.90
13186;DHT22;6658;53.080;7.428;2023-04-25T02:02:49;6.60;99.90
13186;DHT22;6658;53.080;7.428;2023-04-25T02:05:16;6.60;99.90
13186;DHT22;6658;53.080;7.428;2023-04-25T02:07:43;6.60;99.90
13186;DHT22;6658;53.080;7.428;2023-04-25T02:10:09;6.60;99.90
13186;DHT22;6658;53.080;7.428;2023-04-25T02:12:36;6.60;99.90
13186;DHT22;6658;53.080;7.428;2023-04-25T02:15:02;6.60;99.90
13186;DHT22;6658;53.080;7.428;2023-04-25T02:17:27;6.60;99.90
13186;DHT22;6658;53.080;7.428;2023-04-25T02:19:53;6.60;99.90
13186;DHT22;6658;53.080;7.428;2023-04-25T02:22:19;6.70;99.90
13186;DHT22;6658;53.080;7.428;2023-04-25T02:24:45;6.60;99.90
13186;DHT22;6658;53.080;7.428;2023-04-25T02:27:10;6.60;99.90
13186;DHT22;6658;53.080;7.428;2023-04-25T02:29:36;6.60;99.90
13186;DHT22;6658;53.080;7.428;2023-04-25T02:32:02;6.60;99.90
13186;DHT22;6658;53.080;7.428;2023-04-25T02:34:28;6.60;99.90
13186;DHT22;6658;53.080;7.428;2023-04-25T02:36:53;6.60;99.90
13186;DHT22;6658;53.080;7.428;2023-04-25T02:39:19;6.60;99.90
13186;DHT22;6658;53.080;7.428;2023-04-25T02:41:47;6.60;99.90
13186;DHT22;6658;53.080;7.428;2023-04-25T02:44:13;6.50;99.90
13186;DHT22;6658;53.080;7.428;2023-04-25T02:46:38;6.50;99.90
13186;DHT22;6658;53.080;7.428;2023-04-25T02:49:04;6.40;99.90
13186;DHT22;6658;53.080;7.428;2023-04-25T02:51:30;6.30;99.90
13186;DHT22;6658;53.080;7.428;2023-04-25T02:53:56;6.30;99.90
13186;DHT22;6658;53.080;7.428;2023-04-25T02:56:22;6.20;99.90
13186;DHT22;6658;53.080;7.428;2023-04-25T02:58:47;6.20;99.90
13186;DHT22;6658;53.080;7.428;2023-04-25T03:01:13;6.20;99.90
13186;DHT22;6658;53.080;7.428;2023-04-25T03:03:39;6.20;99.90
13186;DHT22;6658;53.080;7.428;2023-04-25T03:06:05;6.10;99.90
13186;DHT22;6658;53.080;7.428;2023-04-25T03:08:30;6.20;99.90
13186;DHT22;6658;53.080;7.428;2023-04-25T03:10:58;6.20;99.90
13186;DHT22;6658;53.080;7.428;2023-04-25T03:13:24;6.20;99.90
13186;DHT22;6658;53.080;7.428;2023-04-25T03:15:50;6.10;99.90
13186;DHT22;6658;53.080;7.428;2023-04-25T03:18:16;6.10;99.90
13186;DHT22;6658;53.080;7.428;2023-04-25T03:20:41;6.10;99.90
13186;DHT22;6658;53.080;7.428;2023-04-25T03:23:08;6.20;99.90
13186;DHT22;6658;53.080;7.428;2023-04-25T03:25:34;6.20;99.90
13186;DHT22;6658;53.080;7.428;2023-04-25T03:27:59;6.20;99.90
13186;DHT22;6658;53.080;7.428;2023-04-25T03:30:25;6.20;99.90
13186;DHT22;6658;53.080;7.428;2023-04-25T03:32:51;6.30;99.90
13186;DHT22;6658;53.080;7.428;2023-04-25T03:35:16;6.30;99.90
13186;DHT22;6658;53.080;7.428;2023-04-25T03:37:42;6.30;99.90
13186;DHT22;6658;53.080;7.428;2023-04-25T03:40:11;6.30;99.90
13186;DHT22;6658;53.080;7.428;2023-04-25T03:42:37;6.20;99.90
13186;DHT22;6658;53.080;7.428;2023-04-25T03:45:03;6.20;99.90
13186;DHT22;6658;53.080;7.428;2023-04-25T03:47:32;6.10;99.90
13186;DHT22;6658;53.080;7.428;2023-04-25T03:49:57;6.10;99.90
13186;DHT22;6658;53.080;7.428;2023-04-25T03:52:23;6.00;99.90
13186;DHT22;6658;53.080;7.428;2023-04-25T03:54:49;5.90;99.90
13186;DHT22;6658;53.080;7.428;2023-04-25T03:57:15;5.80;99.90
13186;DHT22;6658;53.080;7.428;2023-04-25T03:59:40;5.70;99.90
13186;DHT22;6658;53.080;7.428;2023-04-25T04:02:06;5.70;99.90
13186;DHT22;6658;53.080;7.428;2023-04-25T04:04:32;5.60;99.90
13186;DHT22;6658;53.080;7.428;2023-04-25T04:06:57;5.60;99.90
13186;DHT22;6658;53.080;7.428;2023-04-25T04:09:23;5.70;99.90
13186;DHT22;6658;53.080;7.428;2023-04-25T04:11:49;5.70;99.90
13186;DHT22;6658;53.080;7.428;2023-04-25T04:14:15;5.60;99.90
13186;DHT22;6658;53.080;7.428;2023-04-25T04:16:41;5.50;99.90
13186;DHT22;6658;53.080;7.428;2023-04-25T04:19:06;5.30;99.90
13186;DHT22;6658;53.080;7.428;2023-04-25T04:21:32;5.20;99.90
13186;DHT22;6658;53.080;7.428;2023-04-25T04:23:58;5.00;99.90
13186;DHT22;6658;53.080;7.428;2023-04-25T04:26:25;4.90;99.90
13186;DHT22;6658;53.080;7.428;2023-04-25T04:28:51;4.90;99.90
13186;DHT22;6658;53.080;7.428;2023-04-25T04:31:20;4.90;99.90
13186;DHT22;6658;53.080;7.428;2023-04-25T04:33:46;4.90;99.90
13186;DHT22;6658;53.080;7.428;2023-04-25T04:36:12;4.90;99.90
13186;DHT22;6658;53.080;7.428;2023-04-25T04:38:38;4.90;99.90
13186;DHT22;6658;53.080;7.428;2023-04-25T04:41:04;4.90;99.90
13186;DHT22;6658;53.080;7.428;2023-04-25T04:43:29;4.90;99.90
13186;DHT22;6658;53.080;7.428;2023-04-25T04:45:56;4.90;99.90
13186;DHT22;6658;53.080;7.428;2023-04-25T04:48:22;4.90;99.90
13186;DHT22;6658;53.080;7.428;2023-04-25T04:50:48;4.90;99.90
13186;DHT22;6658;53.080;7.428;2023-04-25T04:53:14;5.10;99.90
13186;DHT22;6658;53.080;7.428;2023-04-25T04:55:40;5.40;99.90
13186;DHT22;6658;53.080;7.428;2023-04-25T04:58:07;5.70;99.90
13186;DHT22;6658;53.080;7.428;2023-04-25T05:00:32;6.00;99.90
13186;DHT22;6658;53.080;7.428;2023-04-25T05:02:58;6.10;99.90
13186;DHT22;6658;53.080;7.428;2023-04-25T05:05:25;6.10;99.90
13186;DHT22;6658;53.080;7.428;2023-04-25T05:07:51;6.00;99.90
13186;DHT22;6658;53.080;7.428;2023-04-25T05:10:18;5.90;99.90
13186;DHT22;6658;53.080;7.428;2023-04-25T05:12:44;5.70;99.90
13186;DHT22;6658;53.080;7.428;2023-04-25T05:15:10;5.80;99.90
13186;DHT22;6658;53.080;7.428;2023-04-25T05:17:36;5.80;99.90
13186;DHT22;6658;53.080;7.428;2023-04-25T05:20:02;5.80;99.90
13186;DHT22;6658;53.080;7.428;2023-04-25T05:22:29;5.80;99.90
13186;DHT22;6658;53.080;7.428;2023-04-25T05:24:55;5.90;99.90
13186;DHT22;6658;53.080;7.428;2023-04-25T05:27:21;5.90;99.90
13186;DHT22;6658;53.080;7.428;2023-04-25T05:29:46;6.00;99.90
13186;DHT22;6658;53.080;7.428;2023-04-25T05:32:12;6.00;99.90
13186;DHT22;6658;53.080;7.428;2023-04-25T05:34:38;6.00;99.90
13186;DHT22;6658;53.080;7.428;2023-04-25T05:37:03;6.10;99.90
13186;DHT22;6658;53.080;7.428;2023-04-25T05:39:29;6.10;99.90
13186;DHT22;6658;53.080;7.428;2023-04-25T05:41:55;6.10;99.90
13186;DHT22;6658;53.080;7.428;2023-04-25T05:44:21;6.20;99.90
13186;DHT22;6658;53.080;7.428;2023-04-25T05:46:47;6.20;99.90
13186;DHT22;6658;53.080;7.428;2023-04-25T05:49:12;6.30;99.90
13186;DHT22;6658;53.080;7.428;2023-04-25T05:51:38;6.30;99.90
13186;DHT22;6658;53.080;7.428;2023-04-25T05:54:04;6.30;99.90
13186;DHT22;6658;53.080;7.428;2023-04-25T05:56:30;6.30;99.90
13186;DHT22;6658;53.080;7.428;2023-04-25T05:58:55;6.30;99.90
13186;DHT22;6658;53.080;7.428;2023-04-25T06:01:22;6.30;99.90
13186;DHT22;6658;53.080;7.428;2023-04-25T06:03:48;6.60;99.90
13186;DHT22;6658;53.080;7.428;2023-04-25T06:06:14;7.10;99.90
13186;DHT22;6658;53.080;7.428;2023-04-25T06:08:40;7.60;99.90
13186;DHT22;6658;53.080;7.428;2023-04-25T06:11:06;8.00;99.90
13186;DHT22;6658;53.080;7.428;2023-04-25T06:13:32;8.20;99.90
13186;DHT22;6658;53.080;7.428;2023-04-25T06:15:58;8.20;99.90
13186;DHT22;6658;53.080;7.428;2023-04-25T06:18:24;8.10;99.90
13186;DHT22;6658;53.080;7.428;2023-04-25T06:20:49;8.00;99.90
13186;DHT22;6658;53.080;7.428;2023-04-25T06:23:15;7.80;99.90
13186;DHT22;6658;53.080;7.428;2023-04-25T06:25:41;7.70;99.90
13186;DHT22;6658;53.080;7.428;2023-04-25T06:28:07;7.70;99.90
13186;DHT22;6658;53.080;7.428;2023-04-25T06:30:32;7.60;99.90
13186;DHT22;6658;53.080;7.428;2023-04-25T06:32:58;7.50;99.90
13186;DHT22;6658;53.080;7.428;2023-04-25T06:35:24;7.50;99.90
13186;DHT22;6658;53.080;7.428;2023-04-25T06:37:49;7.50;99.90
13186;DHT22;6658;53.080;7.428;2023-04-25T06:40:15;7.60;99.90
13186;DHT22;6658;53.080;7.428;2023-04-25T06:42:42;7.70;99.90
13186;DHT22;6658;53.080;7.428;2023-04-25T06:45:08;7.90;99.90
13186;DHT22;6658;53.080;7.428;2023-04-25T06:47:34;8.00;99.90
13186;DHT22;6658;53.080;7.428;2023-04-25T06:50:00;8.00;99.90
13186;DHT22;6658;53.080;7.428;2023-04-25T06:52:26;7.90;99.90
13186;DHT22;6658;53.080;7.428;2023-04-25T06:54:51;7.70;99.90
13186;DHT22;6658;53.080;7.428;2023-04-25T06:57:17;7.70;99.90
13186;DHT22;6658;53.080;7.428;2023-04-25T06:59:42;7.50;99.90
13186;DHT22;6658;53.080;7.428;2023-04-25T07:02:08;7.40;99.90
13186;DHT22;6658;53.080;7.428;2023-04-25T07:04:34;7.70;99.90
13186;DHT22;6658;53.080;7.428;2023-04-25T07:06:59;8.10;99.90
13186;DHT22;6658;53.080;7.428;2023-04-25T07:09:28;8.40;99.90
13186;DHT22;6658;53.080;7.428;2023-04-25T07:11:53;8.60;99.90
13186;DHT22;6658;53.080;7.428;2023-04-25T07:14:19;8.70;99.90
13186;DHT22;6658;53.080;7.428;2023-04-25T07:16:45;9.00;99.90
13186;DHT22;6658;53.080;7.428;2023-04-25T07:19:11;9.00;99.90
13186;DHT22;6658;53.080;7.428;2023-04-25T07:21:37;8.90;99.90
13186;DHT22;6658;53.080;7.428;2023-04-25T07:24:03;8.80;99.90
13186;DHT22;6658;53.080;7.428;2023-04-25T07:26:29;8.90;99.90
13186;DHT22;6658;53.080;7.428;2023-04-25T07:28:55;9.10;99.90
13186;DHT22;6658;53.080;7.428;2023-04-25T07:31:21;9.30;99.90
13186;DHT22;6658;53.080;7.428;2023-04-25T07:33:47;9.30;99.90
13186;DHT22;6658;53.080;7.428;2023-04-25T07:36:13;9.50;99.90
13186;DHT22;6658;53.080;7.428;2023-04-25T07:38:40;9.70;99.90
13186;DHT22;6658;53.080;7.428;2023-04-25T07:41:06;9.90;99.90
13186;DHT22;6658;53.080;7.428;2023-04-25T07:43:32;10.10;99.90
13186;DHT22;6658;53.080;7.428;2023-04-25T07:45:58;10.20;99.90
13186;DHT22;6658;53.080;7.428;2023-04-25T07:48:24;10.60;99.90
13186;DHT22;6658;53.080;7.428;2023-04-25T07:50:49;11.10;99.90
13186;DHT22;6658;53.080;7.428;2023-04-25T07:53:15;11.00;99.90
13186;DHT22;6658;53.080;7.428;2023-04-25T07:55:43;10.60;99.90
13186;DHT22;6658;53.080;7.428;2023-04-25T07:58:09;10.20;99.90
13186;DHT22;6658;53.080;7.428;2023-04-25T08:00:36;9.60;99.90
13186;DHT22;6658;53.080;7.428;2023-04-25T08:03:01;9.00;99.90
13186;DHT22;6658;53.080;7.428;2023-04-25T08:05:28;8.20;99.90
13186;DHT22;6658;53.080;7.428;2023-04-25T08:07:54;7.70;99.90
13186;DHT22;6658;53.080;7.428;2023-04-25T08:10:19;7.30;99.90
13186;DHT22;6658;53.080;7.428;2023-04-25T08:12:46;7.20;99.90
13186;DHT22;6658;53.080;7.428;2023-04-25T08:15:11;7.20;99.90
13186;DHT22;6658;53.080;7.428;2023-04-25T08:17:39;7.70;99.90
13186;DHT22;6658;53.080;7.428;2023-04-25T08:20:05;8.20;99.90
13186;DHT22;6658;53.080;7.428;2023-04-25T08:22:31;8.60;99.90
13186;DHT22;6658;53.080;7.428;2023-04-25T08:24:57;9.00;99.90
13186;DHT22;6658;53.080;7.428;2023-04-25T08:27:23;9.40;99.90
13186;DHT22;6658;53.080;7.428;2023-04-25T08:29:49;9.50;99.90
13186;DHT22;6658;53.080;7.428;2023-04-25T08:32:16;9.60;99.90
13186;DHT22;6658;53.080;7.428;2023-04-25T08:34:41;9.70;99.90
13186;DHT22;6658;53.080;7.428;2023-04-25T08:37:09;9.80;99.90
13186;DHT22;6658;53.080;7.428;2023-04-25T08:39:36;9.70;99.90
13186;DHT22;6658;53.080;7.428;2023-04-25T08:42:05;9.80;99.90
13186;DHT22;6658;53.080;7.428;2023-04-25T08:44:34;9.90;99.90
13186;DHT22;6658;53.080;7.428;2023-04-25T08:47:02;10.00;99.90
13186;DHT22;6658;53.080;7.428;2023-04-25T08:49:33;10.40;99.90
13186;DHT22;6658;53.080;7.428;2023-04-25T08:52:00;10.70;99.90
13186;DHT22;6658;53.080;7.428;2023-04-25T08:54:27;11.20;99.90
13186;DHT22;6658;53.080;7.428;2023-04-25T08:56:54;11.60;99.90
13186;DHT22;6658;53.080;7.428;2023-04-25T08:59:22;11.60;99.90
13186;DHT22;6658;53.080;7.428;2023-04-25T09:01:49;11.40;99.90
13186;DHT22;6658;53.080;7.428;2023-04-25T09:04:15;11.00;99.90
13186;DHT22;6658;53.080;7.428;2023-04-25T09:06:41;10.40;99.90
13186;DHT22;6658;53.080;7.428;2023-04-25T09:09:08;10.10;99.90
13186;DHT22;6658;53.080;7.428;2023-04-25T09:11:36;10.00;99.90
13186;DHT22;6658;53.080;7.428;2023-04-25T09:14:22;9.80;99.90
13186;DHT22;6658;53.080;7.428;2023-04-25T09:19:34;9.30;99.90
13186;DHT22;6658;53.080;7.428;2023-04-25T09:22:04;9.50;99.90
13186;DHT22;6658;53.080;7.428;2023-04-25T09:24:44;10.00;99.90
13186;DHT22;6658;53.080;7.428;2023-04-25T09:27:12;10.30;99.90
13186;DHT22;6658;53.080;7.428;2023-04-25T09:29:40;10.40;99.90
13186;DHT22;6658;53.080;7.428;2023-04-25T09:32:20;10.20;99.90
13186;DHT22;6658;53.080;7.428;2023-04-25T09:34:51;9.80;99.90
13186;DHT22;6658;53.080;7.428;2023-04-25T09:37:20;9.70;99.90
13186;DHT22;6658;53.080;7.428;2023-04-25T09:39:47;9.80;99.90
13186;DHT22;6658;53.080;7.428;2023-04-25T09:42:15;10.20;99.90
13186;DHT22;6658;53.080;7.428;2023-04-25T09:44:45;10.30;99.90
13186;DHT22;6658;53.080;7.428;2023-04-25T09:47:13;10.40;99.90
13186;DHT22;6658;53.080;7.428;2023-04-25T09:49:41;10.80;99.90
13186;DHT22;6658;53.080;7.428;2023-04-25T09:52:08;11.00;99.90
13186;DHT22;6658;53.080;7.428;2023-04-25T09:54:34;10.90;99.90
13186;DHT22;6658;53.080;7.428;2023-04-25T09:57:10;11.20;99.90
13186;DHT22;6658;53.080;7.428;2023-04-25T09:59:39;11.60;99.90
13186;DHT22;6658;53.080;7.428;2023-04-25T10:02:08;11.80;99.90
13186;DHT22;6658;53.080;7.428;2023-04-25T10:04:35;12.10;99.90
13186;DHT22;6658;53.080;7.428;2023-04-25T10:07:04;11.90;99.90
13186;DHT22;6658;53.080;7.428;2023-04-25T10:09:31;11.60;99.90
13186;DHT22;6658;53.080;7.428;2023-04-25T10:11:59;11.40;99.90
13186;DHT22;6658;53.080;7.428;2023-04-25T10:14:27;11.40;99.90
13186;DHT22;6658;53.080;7.428;2023-04-25T10:16:54;11.30;99.90
13186;DHT22;6658;53.080;7.428;2023-04-25T10:19:21;11.30;99.90
13186;DHT22;6658;53.080;7.428;2023-04-25T10:21:54;10.90;99.90
13186;DHT22;6658;53.080;7.428;2023-04-25T10:24:21;10.10;99.90
13186;DHT22;6658;53.080;7.428;2023-04-25T10:26:48;8.90;99.90
13186;DHT22;6658;53.080;7.428;2023-04-25T10:29:22;8.20;99.90
13186;DHT22;6658;53.080;7.428;2023-04-25T10:31:49;7.80;99.90
13186;DHT22;6658;53.080;7.428;2023-04-25T10:34:16;7.80;99.90
13186;DHT22;6658;53.080;7.428;2023-04-25T10:36:42;7.70;99.90
13186;DHT22;6658;53.080;7.428;2023-04-25T10:39:08;7.70;99.90
13186;DHT22;6658;53.080;7.428;2023-04-25T10:41:48;7.80;99.90
13186;DHT22;6658;53.080;7.428;2023-04-25T10:44:17;7.60;99.90
13186;DHT22;6658;53.080;7.428;2023-04-25T10:46:44;7.60;99.90
13186;DHT22;6658;53.080;7.428;2023-04-25T10:49:34;7.60;99.90
13186;DHT22;6658;53.080;7.428;2023-04-25T10:54:55;8.40;99.90
13186;DHT22;6658;53.080;7.428;2023-04-25T10:57:31;10.40;99.90
13186;DHT22;6658;53.080;7.428;2023-04-25T11:02:31;13.30;99.90
13186;DHT22;6658;53.080;7.428;2023-04-25T11:04:56;14.30;99.90
13186;DHT22;6658;53.080;7.428;2023-04-25T11:07:31;14.80;99.90
13186;DHT22;6658;53.080;7.428;2023-04-25T11:10:02;14.30;99.90
13186;DHT22;6658;53.080;7.428;2023-04-25T11:12:30;13.80;99.90
13186;DHT22;6658;53.080;7.428;2023-04-25T11:15:04;13.60;99.90
13186;DHT22;6658;53.080;7.428;2023-04-25T11:17:30;12.70;99.90
13186;DHT22;6658;53.080;7.428;2023-04-25T11:19:56;11.70;99.90
13186;DHT22;6658;53.080;7.428;2023-04-25T11:22:22;11.20;99.90
13186;DHT22;6658;53.080;7.428;2023-04-25T11:24:48;10.80;99.90
13186;DHT22;6658;53.080;7.428;2023-04-25T11:27:14;10.10;99.90
13186;DHT22;6658;53.080;7.428;2023-04-25T11:29:40;9.40;99.90
13186;DHT22;6658;53.080;7.428;2023-04-25T11:32:09;9.10;99.90
13186;DHT22;6658;53.080;7.428;2023-04-25T11:34:35;8.90;99.90
13186;DHT22;6658;53.080;7.428;2023-04-25T11:37:02;8.90;99.90
13186;DHT22;6658;53.080;7.428;2023-04-25T11:39:28;9.20;99.90
13186;DHT22;6658;53.080;7.428;2023-04-25T11:41:54;9.40;99.90
13186;DHT22;6658;53.080;7.428;2023-04-25T11:44:21;9.70;99.90
13186;DHT22;6658;53.080;7.428;2023-04-25T11:46:47;9.90;99.90
13186;DHT22;6658;53.080;7.428;2023-04-25T11:49:14;10.10;99.90
13186;DHT22;6658;53.080;7.428;2023-04-25T11:51:44;10.10;99.90
13186;DHT22;6658;53.080;7.428;2023-04-25T11:54:10;10.10;99.90
13186;DHT22;6658;53.080;7.428;2023-04-25T11:56:37;10.00;99.90
13186;DHT22;6658;53.080;7.428;2023-04-25T11:59:05;10.10;99.90
13186;DHT22;6658;53.080;7.428;2023-04-25T12:01:36;10.30;99.90
13186;DHT22;6658;53.080;7.428;2023-04-25T12:04:19;10.40;99.90
13186;DHT22;6658;53.080;7.428;2023-04-25T12:06:47;10.30;99.90
13186;DHT22;6658;53.080;7.428;2023-04-25T12:09:14;10.10;99.90
13186;DHT22;6658;53.080;7.428;2023-04-25T12:11:53;9.90;99.90
13186;DHT22;6658;53.080;7.428;2023-04-25T12:14:33;9.70;99.90
13186;DHT22;6658;53.080;7.428;2023-04-25T12:17:00;9.60;99.90
13186;DHT22;6658;53.080;7.428;2023-04-25T12:19:35;9.50;99.90
13186;DHT22;6658;53.080;7.428;2023-04-25T12:22:02;9.40;99.90
13186;DHT22;6658;53.080;7.428;2023-04-25T12:24:33;9.30;99.90
13186;DHT22;6658;53.080;7.428;2023-04-25T12:27:03;9.30;99.90
13186;DHT22;6658;53.080;7.428;2023-04-25T12:29:32;9.30;99.90
13186;DHT22;6658;53.080;7.428;2023-04-25T12:31:58;9.20;99.90
13186;DHT22;6658;53.080;7.428;2023-04-25T12:34:25;9.20;99.90
13186;DHT22;6658;53.080;7.428;2023-04-25T12:36:52;9.20;99.90
13186;DHT22;6658;53.080;7.428;2023-04-25T12:39:18;9.20;99.90
13186;DHT22;6658;53.080;7.428;2023-04-25T12:41:45;9.20;99.90
13186;DHT22;6658;53.080;7.428;2023-04-25T12:44:12;9.30;99.90
13186;DHT22;6658;53.080;7.428;2023-04-25T12:46:38;9.50;99.90
13186;DHT22;6658;53.080;7.428;2023-04-25T12:49:04;9.60;99.90
13186;DHT22;6658;53.080;7.428;2023-04-25T12:51:30;9.50;99.90
13186;DHT22;6658;53.080;7.428;2023-04-25T12:53:58;9.30;99.90
13186;DHT22;6658;53.080;7.428;2023-04-25T12:56:25;9.10;99.90
13186;DHT22;6658;53.080;7.428;2023-04-25T12:58:52;8.90;99.90
13186;DHT22;6658;53.080;7.428;2023-04-25T13:01:17;8.70;99.90
13186;DHT22;6658;53.080;7.428;2023-04-25T13:03:43;8.50;99.90
13186;DHT22;6658;53.080;7.428;2023-04-25T13:06:09;8.60;99.90
13186;DHT22;6658;53.080;7.428;2023-04-25T13:08:35;9.00;99.90
13186;DHT22;6658;53.080;7.428;2023-04-25T13:11:02;9.40;99.90
13186;DHT22;6658;53.080;7.428;2023-04-25T13:13:29;9.50;99.90
13186;DHT22;6658;53.080;7.428;2023-04-25T13:15:55;9.40;99.90
13186;DHT22;6658;53.080;7.428;2023-04-25T13:18:21;9.50;99.90
13186;DHT22;6658;53.080;7.428;2023-04-25T13:20:46;9.70;99.90
13186;DHT22;6658;53.080;7.428;2023-04-25T13:23:12;9.70;99.90
13186;DHT22;6658;53.080;7.428;2023-04-25T13:25:38;9.70;99.90
13186;DHT22;6658;53.080;7.428;2023-04-25T13:28:04;9.40;99.90
13186;DHT22;6658;53.080;7.428;2023-04-25T13:30:30;9.20;99.90
13186;DHT22;6658;53.080;7.428;2023-04-25T13:32:56;9.20;99.90
13186;DHT22;6658;53.080;7.428;2023-04-25T13:35:22;9.20;99.90
13186;DHT22;6658;53.080;7.428;2023-04-25T13:37:48;9.30;99.90
13186;DHT22;6658;53.080;7.428;2023-04-25T13:40:14;9.40;99.90
13186;DHT22;6658;53.080;7.428;2023-04-25T13:42:40;9.30;99.90
13186;DHT22;6658;53.080;7.428;2023-04-25T13:45:06;9.20;99.90
13186;DHT22;6658;53.080;7.428;2023-04-25T13:47:33;9.00;99.90
13186;DHT22;6658;53.080;7.428;2023-04-25T13:49:59;9.00;99.90
13186;DHT22;6658;53.080;7.428;2023-04-25T13:52:26;9.10;99.90
13186;DHT22;6658;53.080;7.428;2023-04-25T13:54:52;9.20;99.90
13186;DHT22;6658;53.080;7.428;2023-04-25T13:57:18;9.30;99.90
13186;DHT22;6658;53.080;7.428;2023-04-25T13:59:45;9.50;99.90
13186;DHT22;6658;53.080;7.428;2023-04-25T14:02:11;9.60;99.90
13186;DHT22;6658;53.080;7.428;2023-04-25T14:04:37;9.40;99.90
13186;DHT22;6658;53.080;7.428;2023-04-25T14:07:03;9.10;99.90
13186;DHT22;6658;53.080;7.428;2023-04-25T14:09:30;9.00;99.90
13186;DHT22;6658;53.080;7.428;2023-04-25T14:11:56;9.20;99.90
13186;DHT22;6658;53.080;7.428;2023-04-25T14:14:22;9.50;99.90
13186;DHT22;6658;53.080;7.428;2023-04-25T14:16:49;9.80;99.90
13186;DHT22;6658;53.080;7.428;2023-04-25T14:19:16;10.20;99.90
13186;DHT22;6658;53.080;7.428;2023-04-25T14:21:42;10.20;99.90
13186;DHT22;6658;53.080;7.428;2023-04-25T14:24:10;9.90;99.90
13186;DHT22;6658;53.080;7.428;2023-04-25T14:26:36;9.60;99.90
13186;DHT22;6658;53.080;7.428;2023-04-25T14:29:06;9.30;99.90
13186;DHT22;6658;53.080;7.428;2023-04-25T14:31:33;9.20;99.90
13186;DHT22;6658;53.080;7.428;2023-04-25T14:33:59;9.20;99.90
13186;DHT22;6658;53.080;7.428;2023-04-25T14:36:25;9.30;99.90
13186;DHT22;6658;53.080;7.428;2023-04-25T14:38:52;9.50;99.90
13186;DHT22;6658;53.080;7.428;2023-04-25T14:41:18;9.70;99.90
13186;DHT22;6658;53.080;7.428;2023-04-25T14:43:43;9.70;99.90
13186;DHT22;6658;53.080;7.428;2023-04-25T14:46:10;9.60;99.90
13186;DHT22;6658;53.080;7.428;2023-04-25T14:48:36;9.50;99.90
13186;DHT22;6658;53.080;7.428;2023-04-25T14:51:02;9.60;99.90
13186;DHT22;6658;53.080;7.428;2023-04-25T14:53:28;9.70;99.90
13186;DHT22;6658;53.080;7.428;2023-04-25T14:55:54;9.80;99.90
13186;DHT22;6658;53.080;7.428;2023-04-25T14:58:20;9.80;99.90
13186;DHT22;6658;53.080;7.428;2023-04-25T15:00:46;9.70;99.90
13186;DHT22;6658;53.080;7.428;2023-04-25T15:03:12;9.50;99.90
13186;DHT22;6658;53.080;7.428;2023-04-25T15:05:39;9.40;99.90
13186;DHT22;6658;53.080;7.428;2023-04-25T15:08:06;9.40;99.90
13186;DHT22;6658;53.080;7.428;2023-04-25T15:10:32;9.40;99.90
13186;DHT22;6658;53.080;7.428;2023-04-25T15:12:57;9.40;99.90
13186;DHT22;6658;53.080;7.428;2023-04-25T15:15:23;9.30;99.90
13186;DHT22;6658;53.080;7.428;2023-04-25T15:17:49;9.20;99.90
13186;DHT22;6658;53.080;7.428;2023-04-25T15:20:16;9.20;99.90
13186;DHT22;6658;53.080;7.428;2023-04-25T15:22:43;9.20;99.90
13186;DHT22;6658;53.080;7.428;2023-04-25T15:25:10;9.30;99.90
13186;DHT22;6658;53.080;7.428;2023-04-25T15:27:38;9.30;99.90
13186;DHT22;6658;53.080;7.428;2023-04-25T15:30:08;9.30;99.90
13186;DHT22;6658;53.080;7.428;2023-04-25T15:32:36;9.30;99.90
13186;DHT22;6658;53.080;7.428;2023-04-25T15:35:04;9.30;99.90
13186;DHT22;6658;53.080;7.428;2023-04-25T15:37:31;9.20;99.90
13186;DHT22;6658;53.080;7.428;2023-04-25T15:40:10;9.20;99.90
13186;DHT22;6658;53.080;7.428;2023-04-25T15:42:38;9.30;99.90
13186;DHT22;6658;53.080;7.428;2023-04-25T15:45:05;9.40;99.90
13186;DHT22;6658;53.080;7.428;2023-04-25T15:47:32;9.50;99.90
13186;DHT22;6658;53.080;7.428;2023-04-25T15:49:58;9.60;99.90
13186;DHT22;6658;53.080;7.428;2023-04-25T15:52:24;9.60;99.90
13186;DHT22;6658;53.080;7.428;2023-04-25T15:54:50;9.60;99.90
13186;DHT22;6658;53.080;7.428;2023-04-25T15:57:16;9.40;99.90
13186;DHT22;6658;53.080;7.428;2023-04-25T15:59:41;9.10;99.90
13186;DHT22;6658;53.080;7.428;2023-04-25T16:02:08;9.00;99.90
13186;DHT22;6658;53.080;7.428;2023-04-25T16:04:34;8.90;99.90
13186;DHT22;6658;53.080;7.428;2023-04-25T16:07:03;8.70;99.90
13186;DHT22;6658;53.080;7.428;2023-04-25T16:09:30;8.70;99.90